sensor_id;sensor_type;location;lat;lon;timestamp;temperature;humidity
18388;DHT22;9320;50.256;19.026;2022-09-02T00:01:34;13.30;99.60
18388;DHT22;9320;50.256;19.026;2022-09-02T00:04:05;13.30;99.70
18388;DHT22;9320;50.256;19.026;2022-09-02T00:06:35;13.20;99.90
18388;DHT22;9320;50.256;19.026;2022-09-02T00:09:04;13.20;99.90
18388;DHT22;9320;50.256;19.026;2022-09-02T00:11:33;13.10;99.90
18388;DHT22;9320;50.256;19.026;2022-09-02T00:14:04;13.20;99.90
18388;DHT22;9320;50.256;19.026;2022-09-02T00:16:33;13.10;99.90
18388;DHT22;9320;50.256;19.026;2022-09-02T00:19:02;13.00;99.90
18388;DHT22;9320;50.256;19.026;2022-09-02T00:21:31;13.00;99.90
18388;DHT22;9320;50.256;19.026;2022-09-02T00:24:02;13.00;99.90
18388;DHT22;9320;50.256;19.026;2022-09-02T00:26:31;13.00;99.90
18388;DHT22;9320;50.256;19.026;2022-09-02T00:28:59;13.10;99.90
18388;DHT22;9320;50.256;19.026;2022-09-02T00:31:27;13.00;99.90
18388;DHT22;9320;50.256;19.026;2022-09-02T00:33:55;13.00;99.90
18388;DHT22;9320;50.256;19.026;2022-09-02T00:36:24;13.00;99.90
18388;DHT22;9320;50.256;19.026;2022-09-02T00:38:52;12.90;99.90
18388;DHT22;9320;50.256;19.026;2022-09-02T00:41:24;12.90;99.90
18388;DHT22;9320;50.256;19.026;2022-09-02T00:43:54;12.80;99.90
18388;DHT22;9320;50.256;19.026;2022-09-02T00:46:24;12.80;99.90
18388;DHT22;9320;50.256;19.026;2022-09-02T00:49:00;12.80;99.90
18388;DHT22;9320;50.256;19.026;2022-09-02T00:51:33;12.80;99.90
18388;DHT22;9320;50.256;19.026;2022-09-02T00:54:04;12.80;99.90
18388;DHT22;9320;50.256;19.026;2022-09-02T00:56:36;12.70;99.90
18388;DHT22;9320;50.256;19.026;2022-09-02T00:59:06;12.80;99.90
18388;DHT22;9320;50.256;19.026;2022-09-02T01:01:35;12.80;99.90
18388;DHT22;9320;50.256;19.026;2022-09-02T01:04:03;12.70;99.90
18388;DHT22;9320;50.256;19.026;2022-09-02T01:06:31;12.60;99.90
18388;DHT22;9320;50.256;19.026;2022-09-02T01:09:05;12.70;99.90
18388;DHT22;9320;50.256;19.026;2022-09-02T01:11:40;12.70;99.90
18388;DHT22;9320;50.256;19.026;2022-09-02T01:14:09;12.60;99.90
18388;DHT22;9320;50.256;19.026;2022-09-02T01:16:40;12.60;99.90
18388;DHT22;9320;50.256;19.026;2022-09-02T01:19:15;12.60;99.90
18388;DHT22;9320;50.256;19.026;2022-09-02T01:21:47;12.60;99.90
18388;DHT22;9320;50.256;19.026;2022-09-02T01:24:16;12.60;99.90
18388;DHT22;9320;50.256;19.026;2022-09-02T01:26:45;12.60;99.90
18388;DHT22;9320;50.256;19.026;2022-09-02T01:29:13;12.60;99.90
18388;DHT22;9320;50.256;19.026;2022-09-02T01:31:43;12.60;99.90
18388;DHT22;9320;50.256;19.026;2022-09-02T01:34:11;12.50;99.90
18388;DHT22;9320;50.256;19.026;2022-09-02T01:36:41;12.50;99.90
18388;DHT22;9320;50.256;19.026;2022-09-02T01:39:11;12.50;99.90
18388;DHT22;9320;50.256;19.026;2022-09-02T01:41:40;12.60;99.90
18388;DHT22;9320;50.256;19.026;2022-09-02T01:44:08;12.60;99.90
18388;DHT22;9320;50.256;19.026;2022-09-02T01:46:38;12.60;99.90
18388;DHT22;9320;50.256;19.026;2022-09-02T01:49:06;12.70;99.90
18388;DHT22;9320;50.256;19.026;2022-09-02T01:51:34;12.60;99.90
18388;DHT22;9320;50.256;19.026;2022-09-02T01:54:02;12.50;99.90
18388;DHT22;9320;50.256;19.026;2022-09-02T01:56:32;12.60;99.90
18388;DHT22;9320;50.256;19.026;2022-09-02T01:59:00;12.50;99.90
18388;DHT22;9320;50.256;19.026;2022-09-02T02:01:29;12.50;99.90
18388;DHT22;9320;50.256;19.026;2022-09-02T02:03:57;12.50;99.90
18388;DHT22;9320;50.256;19.026;2022-09-02T02:06:25;12.50;99.90
18388;DHT22;9320;50.256;19.026;2022-09-02T02:08:53;12.50;99.90
18388;DHT22;9320;50.256;19.026;2022-09-02T02:11:23;12.40;99.90
18388;DHT22;9320;50.256;19.026;2022-09-02T02:13:52;12.50;99.90
18388;DHT22;9320;50.256;19.026;2022-09-02T02:16:20;12.50;99.90
18388;DHT22;9320;50.256;19.026;2022-09-02T02:18:48;12.50;99.90
18388;DHT22;9320;50.256;19.026;2022-09-02T02:21:17;12.50;99.90
18388;DHT22;9320;50.256;19.026;2022-09-02T02:23:46;12.40;99.90
18388;DHT22;9320;50.256;19.026;2022-09-02T02:26:15;12.50;99.90
18388;DHT22;9320;50.256;19.026;2022-09-02T02:28:43;12.50;99.90
18388;DHT22;9320;50.256;19.026;2022-09-02T02:31:13;12.40;99.90
18388;DHT22;9320;50.256;19.026;2022-09-02T02:33:41;12.30;99.90
18388;DHT22;9320;50.256;19.026;2022-09-02T02:36:09;12.30;99.90
18388;DHT22;9320;50.256;19.026;2022-09-02T02:38:38;12.30;99.90
18388;DHT22;9320;50.256;19.026;2022-09-02T02:41:07;12.40;99.90
18388;DHT22;9320;50.256;19.026;2022-09-02T02:43:36;12.50;99.90
18388;DHT22;9320;50.256;19.026;2022-09-02T02:46:05;12.40;99.90
18388;DHT22;9320;50.256;19.026;2022-09-02T02:48:35;12.40;99.90
18388;DHT22;9320;50.256;19.026;2022-09-02T02:51:04;12.40;99.90
18388;DHT22;9320;50.256;19.026;2022-09-02T02:53:33;12.30;99.90
18388;DHT22;9320;50.256;19.026;2022-09-02T02:56:03;12.30;99.90
18388;DHT22;9320;50.256;19.026;2022-09-02T02:58:32;12.20;99.90
18388;DHT22;9320;50.256;19.026;2022-09-02T03:01:00;12.20;99.90
18388;DHT22;9320;50.256;19.026;2022-09-02T03:03:28;12.10;99.90
18388;DHT22;9320;50.256;19.026;2022-09-02T03:05:58;12.10;99.90
18388;DHT22;9320;50.256;19.026;2022-09-02T03:08:26;12.20;99.90
18388;DHT22;9320;50.256;19.026;2022-09-02T03:10:55;12.20;99.90
18388;DHT22;9320;50.256;19.026;2022-09-02T03:13:24;12.10;99.90
18388;DHT22;9320;50.256;19.026;2022-09-02T03:15:55;12.10;99.90
18388;DHT22;9320;50.256;19.026;2022-09-02T03:18:23;12.10;99.90
18388;DHT22;9320;50.256;19.026;2022-09-02T03:20:51;12.00;99.90
18388;DHT22;9320;50.256;19.026;2022-09-02T03:23:20;12.10;99.90
18388;DHT22;9320;50.256;19.026;2022-09-02T03:25:49;12.10;99.90
18388;DHT22;9320;50.256;19.026;2022-09-02T03:28:17;12.10;99.90
18388;DHT22;9320;50.256;19.026;2022-09-02T03:30:45;12.10;99.90
18388;DHT22;9320;50.256;19.026;2022-09-02T03:33:14;12.00;99.90
18388;DHT22;9320;50.256;19.026;2022-09-02T03:35:43;12.10;99.90
18388;DHT22;9320;50.256;19.026;2022-09-02T03:38:12;12.20;99.90
18388;DHT22;9320;50.256;19.026;2022-09-02T03:40:41;12.30;99.90
18388;DHT22;9320;50.256;19.026;2022-09-02T03:43:10;12.30;99.90
18388;DHT22;9320;50.256;19.026;2022-09-02T03:45:39;12.30;99.90
18388;DHT22;9320;50.256;19.026;2022-09-02T03:48:08;12.20;99.90
18388;DHT22;9320;50.256;19.026;2022-09-02T03:50:40;12.00;99.90
18388;DHT22;9320;50.256;19.026;2022-09-02T03:53:09;12.00;99.90
18388;DHT22;9320;50.256;19.026;2022-09-02T03:55:47;12.00;99.90
18388;DHT22;9320;50.256;19.026;2022-09-02T03:58:16;12.10;99.90
18388;DHT22;9320;50.256;19.026;2022-09-02T04:00:49;12.10;99.90
18388;DHT22;9320;50.256;19.026;2022-09-02T04:03:18;12.00;99.90
18388;DHT22;9320;50.256;19.026;2022-09-02T04:05:47;11.90;99.90
18388;DHT22;9320;50.256;19.026;2022-09-02T04:08:16;11.80;99.90
18388;DHT22;9320;50.256;19.026;2022-09-02T04:10:44;11.80;99.90
18388;DHT22;9320;50.256;19.026;2022-09-02T04:13:14;11.80;99.90
18388;DHT22;9320;50.256;19.026;2022-09-02T04:15:44;11.80;99.90
18388;DHT22;9320;50.256;19.026;2022-09-02T04:18:16;11.70;99.90
18388;DHT22;9320;50.256;19.026;2022-09-02T04:20:44;11.70;99.90
18388;DHT22;9320;50.256;19.026;2022-09-02T04:23:13;11.70;99.90
18388;DHT22;9320;50.256;19.026;2022-09-02T04:25:42;11.60;99.90
18388;DHT22;9320;50.256;19.026;2022-09-02T04:28:10;11.70;99.90
18388;DHT22;9320;50.256;19.026;2022-09-02T04:30:41;11.70;99.90
18388;DHT22;9320;50.256;19.026;2022-09-02T04:33:10;11.70;99.90
18388;DHT22;9320;50.256;19.026;2022-09-02T04:35:39;11.70;99.90
18388;DHT22;9320;50.256;19.026;2022-09-02T04:38:07;11.70;99.90
18388;DHT22;9320;50.256;19.026;2022-09-02T04:40:39;11.70;99.90
18388;DHT22;9320;50.256;19.026;2022-09-02T04:43:07;11.70;99.90
18388;DHT22;9320;50.256;19.026;2022-09-02T04:45:40;11.70;99.90
18388;DHT22;9320;50.256;19.026;2022-09-02T04:48:08;11.70;99.90
18388;DHT22;9320;50.256;19.026;2022-09-02T04:50:38;11.80;99.90
18388;DHT22;9320;50.256;19.026;2022-09-02T04:53:06;11.80;99.90
18388;DHT22;9320;50.256;19.026;2022-09-02T04:55:37;11.80;99.90
18388;DHT22;9320;50.256;19.026;2022-09-02T04:58:06;11.80;99.90
18388;DHT22;9320;50.256;19.026;2022-09-02T05:00:35;11.80;99.90
18388;DHT22;9320;50.256;19.026;2022-09-02T05:03:05;11.90;99.90
18388;DHT22;9320;50.256;19.026;2022-09-02T05:05:33;12.00;99.90
18388;DHT22;9320;50.256;19.026;2022-09-02T05:08:01;12.10;99.90
18388;DHT22;9320;50.256;19.026;2022-09-02T05:10:30;12.00;99.90
18388;DHT22;9320;50.256;19.026;2022-09-02T05:12:59;12.10;99.90
18388;DHT22;9320;50.256;19.026;2022-09-02T05:15:27;12.10;99.90
18388;DHT22;9320;50.256;19.026;2022-09-02T05:17:55;12.00;99.90
18388;DHT22;9320;50.256;19.026;2022-09-02T05:20:24;12.10;99.90
18388;DHT22;9320;50.256;19.026;2022-09-02T05:22:54;12.10;99.90
18388;DHT22;9320;50.256;19.026;2022-09-02T05:25:22;12.20;99.90
18388;DHT22;9320;50.256;19.026;2022-09-02T05:27:50;12.20;99.90
18388;DHT22;9320;50.256;19.026;2022-09-02T05:30:18;12.30;99.90
18388;DHT22;9320;50.256;19.026;2022-09-02T05:32:46;12.30;99.90
18388;DHT22;9320;50.256;19.026;2022-09-02T05:35:16;12.40;99.90
18388;DHT22;9320;50.256;19.026;2022-09-02T05:37:46;12.40;99.90
18388;DHT22;9320;50.256;19.026;2022-09-02T05:40:14;12.50;99.90
18388;DHT22;9320;50.256;19.026;2022-09-02T05:42:48;12.60;99.90
18388;DHT22;9320;50.256;19.026;2022-09-02T05:45:16;12.70;99.90
18388;DHT22;9320;50.256;19.026;2022-09-02T05:47:44;12.60;99.90
18388;DHT22;9320;50.256;19.026;2022-09-02T05:50:12;12.80;99.90
18388;DHT22;9320;50.256;19.026;2022-09-02T05:52:42;12.90;99.90
18388;DHT22;9320;50.256;19.026;2022-09-02T05:55:12;12.80;99.90
18388;DHT22;9320;50.256;19.026;2022-09-02T05:57:39;12.80;99.90
18388;DHT22;9320;50.256;19.026;2022-09-02T06:00:10;12.90;99.90
18388;DHT22;9320;50.256;19.026;2022-09-02T06:02:43;12.90;99.90
18388;DHT22;9320;50.256;19.026;2022-09-02T06:05:12;12.90;99.90
18388;DHT22;9320;50.256;19.026;2022-09-02T06:07:40;13.00;99.90
18388;DHT22;9320;50.256;19.026;2022-09-02T06:10:08;13.00;99.90
18388;DHT22;9320;50.256;19.026;2022-09-02T06:12:37;13.20;99.90
18388;DHT22;9320;50.256;19.026;2022-09-02T06:15:09;13.20;99.90
18388;DHT22;9320;50.256;19.026;2022-09-02T06:17:38;13.30;99.90
18388;DHT22;9320;50.256;19.026;2022-09-02T06:20:07;13.40;99.90
18388;DHT22;9320;50.256;19.026;2022-09-02T06:22:37;13.40;99.90
18388;DHT22;9320;50.256;19.026;2022-09-02T06:25:06;13.50;99.90
18388;DHT22;9320;50.256;19.026;2022-09-02T06:27:41;13.50;99.90
18388;DHT22;9320;50.256;19.026;2022-09-02T06:30:09;13.60;99.90
18388;DHT22;9320;50.256;19.026;2022-09-02T06:32:38;13.70;99.90
18388;DHT22;9320;50.256;19.026;2022-09-02T06:35:07;13.80;99.90
18388;DHT22;9320;50.256;19.026;2022-09-02T06:37:36;13.80;99.90
18388;DHT22;9320;50.256;19.026;2022-09-02T06:40:05;13.80;99.80
18388;DHT22;9320;50.256;19.026;2022-09-02T06:42:33;13.80;99.40
18388;DHT22;9320;50.256;19.026;2022-09-02T06:45:03;13.80;99.50
18388;DHT22;9320;50.256;19.026;2022-09-02T06:47:31;13.80;99.80
18388;DHT22;9320;50.256;19.026;2022-09-02T06:49:59;13.90;99.90
18388;DHT22;9320;50.256;19.026;2022-09-02T06:52:28;14.00;99.10
18388;DHT22;9320;50.256;19.026;2022-09-02T06:54:56;14.00;99.10
18388;DHT22;9320;50.256;19.026;2022-09-02T06:57:24;14.20;99.00
18388;DHT22;9320;50.256;19.026;2022-09-02T07:00:00;14.20;98.70
18388;DHT22;9320;50.256;19.026;2022-09-02T07:02:30;14.20;98.30
18388;DHT22;9320;50.256;19.026;2022-09-02T07:04:58;14.20;98.10
18388;DHT22;9320;50.256;19.026;2022-09-02T07:07:42;14.30;98.20
18388;DHT22;9320;50.256;19.026;2022-09-02T07:10:14;14.30;97.60
18388;DHT22;9320;50.256;19.026;2022-09-02T07:12:42;14.40;97.30
18388;DHT22;9320;50.256;19.026;2022-09-02T07:15:10;14.60;97.60
18388;DHT22;9320;50.256;19.026;2022-09-02T07:17:40;14.70;97.30
18388;DHT22;9320;50.256;19.026;2022-09-02T07:20:09;14.70;97.00
18388;DHT22;9320;50.256;19.026;2022-09-02T07:22:37;14.80;96.90
18388;DHT22;9320;50.256;19.026;2022-09-02T07:25:07;14.80;96.70
18388;DHT22;9320;50.256;19.026;2022-09-02T07:27:35;15.10;96.40
18388;DHT22;9320;50.256;19.026;2022-09-02T07:30:04;15.10;95.80
18388;DHT22;9320;50.256;19.026;2022-09-02T07:32:32;15.10;96.00
18388;DHT22;9320;50.256;19.026;2022-09-02T07:35:02;15.10;95.80
18388;DHT22;9320;50.256;19.026;2022-09-02T07:37:31;15.20;95.40
18388;DHT22;9320;50.256;19.026;2022-09-02T07:40:00;15.30;95.10
18388;DHT22;9320;50.256;19.026;2022-09-02T07:42:28;15.40;94.70
18388;DHT22;9320;50.256;19.026;2022-09-02T07:44:56;15.50;94.40
18388;DHT22;9320;50.256;19.026;2022-09-02T07:47:24;15.60;94.30
18388;DHT22;9320;50.256;19.026;2022-09-02T07:49:52;15.70;94.20
18388;DHT22;9320;50.256;19.026;2022-09-02T07:52:45;15.70;94.30
18388;DHT22;9320;50.256;19.026;2022-09-02T07:55:16;15.90;94.00
18388;DHT22;9320;50.256;19.026;2022-09-02T07:57:46;15.90;93.60
18388;DHT22;9320;50.256;19.026;2022-09-02T08:00:20;16.00;93.50
18388;DHT22;9320;50.256;19.026;2022-09-02T08:02:55;16.20;93.10
18388;DHT22;9320;50.256;19.026;2022-09-02T08:05:30;16.20;93.10
18388;DHT22;9320;50.256;19.026;2022-09-02T08:08:01;16.40;92.70
18388;DHT22;9320;50.256;19.026;2022-09-02T08:10:32;16.40;92.40
18388;DHT22;9320;50.256;19.026;2022-09-02T08:13:14;16.50;92.00
18388;DHT22;9320;50.256;19.026;2022-09-02T08:15:46;16.50;91.40
18388;DHT22;9320;50.256;19.026;2022-09-02T08:18:17;16.60;91.30
18388;DHT22;9320;50.256;19.026;2022-09-02T08:20:50;16.60;91.20
18388;DHT22;9320;50.256;19.026;2022-09-02T08:23:22;16.70;91.10
18388;DHT22;9320;50.256;19.026;2022-09-02T08:26:05;16.90;91.10
18388;DHT22;9320;50.256;19.026;2022-09-02T08:28:35;16.90;90.60
18388;DHT22;9320;50.256;19.026;2022-09-02T08:31:06;17.20;90.40
18388;DHT22;9320;50.256;19.026;2022-09-02T08:33:36;17.40;89.70
18388;DHT22;9320;50.256;19.026;2022-09-02T08:36:07;17.90;86.00
18388;DHT22;9320;50.256;19.026;2022-09-02T08:38:40;18.30;84.70
18388;DHT22;9320;50.256;19.026;2022-09-02T08:41:20;18.50;81.40
18388;DHT22;9320;50.256;19.026;2022-09-02T08:43:51;18.60;80.50
18388;DHT22;9320;50.256;19.026;2022-09-02T08:46:23;18.60;79.50
18388;DHT22;9320;50.256;19.026;2022-09-02T08:48:54;18.60;78.80
18388;DHT22;9320;50.256;19.026;2022-09-02T08:51:30;18.60;77.20
18388;DHT22;9320;50.256;19.026;2022-09-02T08:54:07;18.70;76.90
18388;DHT22;9320;50.256;19.026;2022-09-02T08:56:37;18.60;76.40
18388;DHT22;9320;50.256;19.026;2022-09-02T08:59:08;18.80;75.80
18388;DHT22;9320;50.256;19.026;2022-09-02T09:01:44;19.00;73.80
18388;DHT22;9320;50.256;19.026;2022-09-02T09:04:19;18.80;73.80
18388;DHT22;9320;50.256;19.026;2022-09-02T09:09:52;18.90;74.00
18388;DHT22;9320;50.256;19.026;2022-09-02T09:12:30;18.80;74.00
18388;DHT22;9320;50.256;19.026;2022-09-02T09:15:06;18.60;73.60
18388;DHT22;9320;50.256;19.026;2022-09-02T09:17:39;18.60;72.80
18388;DHT22;9320;50.256;19.026;2022-09-02T09:20:15;18.60;71.20
18388;DHT22;9320;50.256;19.026;2022-09-02T09:22:47;18.70;70.00
18388;DHT22;9320;50.256;19.026;2022-09-02T09:25:17;19.10;68.20
18388;DHT22;9320;50.256;19.026;2022-09-02T09:27:45;19.00;66.40
18388;DHT22;9320;50.256;19.026;2022-09-02T09:30:13;19.30;66.30
18388;DHT22;9320;50.256;19.026;2022-09-02T09:32:44;20.10;65.40
18388;DHT22;9320;50.256;19.026;2022-09-02T09:35:13;21.30;60.50
18388;DHT22;9320;50.256;19.026;2022-09-02T09:37:43;21.70;58.80
18388;DHT22;9320;50.256;19.026;2022-09-02T09:40:27;23.80;57.00
18388;DHT22;9320;50.256;19.026;2022-09-02T09:42:58;24.80;51.40
18388;DHT22;9320;50.256;19.026;2022-09-02T09:45:42;25.30;50.20
18388;DHT22;9320;50.256;19.026;2022-09-02T09:48:22;23.40;52.70
18388;DHT22;9320;50.256;19.026;2022-09-02T09:51:13;22.20;55.30
18388;DHT22;9320;50.256;19.026;2022-09-02T09:53:43;22.60;54.40
18388;DHT22;9320;50.256;19.026;2022-09-02T09:56:28;22.10;55.10
18388;DHT22;9320;50.256;19.026;2022-09-02T09:59:06;21.10;57.40
18388;DHT22;9320;50.256;19.026;2022-09-02T10:01:35;20.90;59.30
18388;DHT22;9320;50.256;19.026;2022-09-02T10:04:07;21.90;59.50
18388;DHT22;9320;50.256;19.026;2022-09-02T10:06:56;23.50;52.70
18388;DHT22;9320;50.256;19.026;2022-09-02T10:09:34;25.10;49.00
18388;DHT22;9320;50.256;19.026;2022-09-02T10:12:06;25.30;47.40
18388;DHT22;9320;50.256;19.026;2022-09-02T10:14:36;24.30;47.40
18388;DHT22;9320;50.256;19.026;2022-09-02T10:17:22;27.70;46.00
18388;DHT22;9320;50.256;19.026;2022-09-02T10:19:55;27.80;45.70
18388;DHT22;9320;50.256;19.026;2022-09-02T10:22:50;31.40;40.60
18388;DHT22;9320;50.256;19.026;2022-09-02T10:25:32;32.70;36.50
18388;DHT22;9320;50.256;19.026;2022-09-02T10:28:12;32.60;33.00
18388;DHT22;9320;50.256;19.026;2022-09-02T10:30:51;32.90;36.40
18388;DHT22;9320;50.256;19.026;2022-09-02T10:33:30;28.50;40.00
18388;DHT22;9320;50.256;19.026;2022-09-02T10:36:10;26.60;43.60
18388;DHT22;9320;50.256;19.026;2022-09-02T10:38:48;23.40;48.40
18388;DHT22;9320;50.256;19.026;2022-09-02T10:41:29;22.20;51.00
18388;DHT22;9320;50.256;19.026;2022-09-02T10:44:14;21.90;52.20
18388;DHT22;9320;50.256;19.026;2022-09-02T10:46:54;21.40;53.60
18388;DHT22;9320;50.256;19.026;2022-09-02T10:49:42;21.60;53.80
18388;DHT22;9320;50.256;19.026;2022-09-02T10:52:24;21.80;53.20
18388;DHT22;9320;50.256;19.026;2022-09-02T10:54:59;21.30;54.20
18388;DHT22;9320;50.256;19.026;2022-09-02T10:57:33;21.50;54.70
18388;DHT22;9320;50.256;19.026;2022-09-02T11:00:07;21.50;54.50
18388;DHT22;9320;50.256;19.026;2022-09-02T11:02:42;21.80;54.10
18388;DHT22;9320;50.256;19.026;2022-09-02T11:05:15;22.30;52.10
18388;DHT22;9320;50.256;19.026;2022-09-02T11:07:49;22.70;52.20
18388;DHT22;9320;50.256;19.026;2022-09-02T11:10:22;22.20;51.70
18388;DHT22;9320;50.256;19.026;2022-09-02T11:12:58;21.30;52.20
18388;DHT22;9320;50.256;19.026;2022-09-02T11:15:39;21.40;54.00
18388;DHT22;9320;50.256;19.026;2022-09-02T11:18:17;21.30;53.80
18388;DHT22;9320;50.256;19.026;2022-09-02T11:20:53;21.80;51.60
18388;DHT22;9320;50.256;19.026;2022-09-02T11:23:29;21.80;50.30
18388;DHT22;9320;50.256;19.026;2022-09-02T11:26:03;21.40;50.90
18388;DHT22;9320;50.256;19.026;2022-09-02T11:28:39;21.40;51.90
18388;DHT22;9320;50.256;19.026;2022-09-02T11:31:14;21.40;51.40
18388;DHT22;9320;50.256;19.026;2022-09-02T11:33:50;21.50;52.00
18388;DHT22;9320;50.256;19.026;2022-09-02T11:36:19;21.40;52.10
18388;DHT22;9320;50.256;19.026;2022-09-02T11:38:53;21.10;52.00
18388;DHT22;9320;50.256;19.026;2022-09-02T11:41:34;20.80;52.50
18388;DHT22;9320;50.256;19.026;2022-09-02T11:44:29;20.60;52.80
18388;DHT22;9320;50.256;19.026;2022-09-02T11:47:14;20.80;52.60
18388;DHT22;9320;50.256;19.026;2022-09-02T11:50:07;20.70;52.90
18388;DHT22;9320;50.256;19.026;2022-09-02T11:52:46;20.20;52.90
18388;DHT22;9320;50.256;19.026;2022-09-02T11:55:19;20.00;53.60
18388;DHT22;9320;50.256;19.026;2022-09-02T11:57:52;19.90;53.60
18388;DHT22;9320;50.256;19.026;2022-09-02T12:00:30;20.10;52.90
18388;DHT22;9320;50.256;19.026;2022-09-02T12:03:19;20.50;52.20
18388;DHT22;9320;50.256;19.026;2022-09-02T12:06:12;20.90;51.20
18388;DHT22;9320;50.256;19.026;2022-09-02T12:09:04;21.00;51.30
18388;DHT22;9320;50.256;19.026;2022-09-02T12:11:49;20.80;51.80
18388;DHT22;9320;50.256;19.026;2022-09-02T12:18:06;20.40;53.00
18388;DHT22;9320;50.256;19.026;2022-09-02T12:21:09;20.30;53.40
18388;DHT22;9320;50.256;19.026;2022-09-02T12:24:19;20.20;53.30
18388;DHT22;9320;50.256;19.026;2022-09-02T12:27:09;20.30;53.20
18388;DHT22;9320;50.256;19.026;2022-09-02T12:29:38;20.20;53.00
18388;DHT22;9320;50.256;19.026;2022-09-02T12:32:07;20.40;52.00
18388;DHT22;9320;50.256;19.026;2022-09-02T12:34:56;20.70;51.80
18388;DHT22;9320;50.256;19.026;2022-09-02T12:37:52;20.90;51.70
18388;DHT22;9320;50.256;19.026;2022-09-02T12:40:33;20.80;51.60
18388;DHT22;9320;50.256;19.026;2022-09-02T12:43:15;20.90;51.90
18388;DHT22;9320;50.256;19.026;2022-09-02T12:45:47;20.80;52.70
18388;DHT22;9320;50.256;19.026;2022-09-02T12:48:19;20.60;53.30
18388;DHT22;9320;50.256;19.026;2022-09-02T12:51:02;20.40;53.00
18388;DHT22;9320;50.256;19.026;2022-09-02T12:53:37;20.20;53.70
18388;DHT22;9320;50.256;19.026;2022-09-02T12:56:19;20.20;53.40
18388;DHT22;9320;50.256;19.026;2022-09-02T12:58:51;20.30;53.40
18388;DHT22;9320;50.256;19.026;2022-09-02T13:01:28;20.50;52.90
18388;DHT22;9320;50.256;19.026;2022-09-02T13:04:18;20.50;53.00
18388;DHT22;9320;50.256;19.026;2022-09-02T13:07:27;20.70;53.00
18388;DHT22;9320;50.256;19.026;2022-09-02T13:10:26;20.80;52.20
18388;DHT22;9320;50.256;19.026;2022-09-02T13:13:18;20.40;52.50
18388;DHT22;9320;50.256;19.026;2022-09-02T13:16:09;20.00;53.50
18388;DHT22;9320;50.256;19.026;2022-09-02T13:19:07;20.00;53.80
18388;DHT22;9320;50.256;19.026;2022-09-02T13:22:03;20.20;53.50
18388;DHT22;9320;50.256;19.026;2022-09-02T13:25:08;20.40;51.90
18388;DHT22;9320;50.256;19.026;2022-09-02T13:30:50;20.90;51.70
18388;DHT22;9320;50.256;19.026;2022-09-02T13:33:22;20.80;51.60
18388;DHT22;9320;50.256;19.026;2022-09-02T13:35:53;20.70;51.90
18388;DHT22;9320;50.256;19.026;2022-09-02T13:38:25;20.40;52.60
18388;DHT22;9320;50.256;19.026;2022-09-02T13:40:54;20.20;53.50
18388;DHT22;9320;50.256;19.026;2022-09-02T13:43:24;20.00;54.40
18388;DHT22;9320;50.256;19.026;2022-09-02T13:45:58;19.90;54.80
18388;DHT22;9320;50.256;19.026;2022-09-02T13:48:29;20.00;54.50
18388;DHT22;9320;50.256;19.026;2022-09-02T13:51:01;20.10;54.50
18388;DHT22;9320;50.256;19.026;2022-09-02T13:53:36;20.20;54.20
18388;DHT22;9320;50.256;19.026;2022-09-02T13:56:27;20.40;53.30
18388;DHT22;9320;50.256;19.026;2022-09-02T13:58:58;20.50;53.40
18388;DHT22;9320;50.256;19.026;2022-09-02T14:01:28;20.60;51.60
18388;DHT22;9320;50.256;19.026;2022-09-02T14:03:57;20.50;50.20
18388;DHT22;9320;50.256;19.026;2022-09-02T14:06:29;20.40;51.00
18388;DHT22;9320;50.256;19.026;2022-09-02T14:09:01;20.20;51.70
18388;DHT22;9320;50.256;19.026;2022-09-02T14:11:37;20.10;52.50
18388;DHT22;9320;50.256;19.026;2022-09-02T14:14:07;20.00;52.90
18388;DHT22;9320;50.256;19.026;2022-09-02T14:16:36;19.80;53.30
18388;DHT22;9320;50.256;19.026;2022-09-02T14:19:21;19.90;53.80
18388;DHT22;9320;50.256;19.026;2022-09-02T14:21:51;20.10;53.90
18388;DHT22;9320;50.256;19.026;2022-09-02T14:24:21;20.40;52.60
18388;DHT22;9320;50.256;19.026;2022-09-02T14:26:52;20.70;52.50
18388;DHT22;9320;50.256;19.026;2022-09-02T14:29:23;21.00;52.00
18388;DHT22;9320;50.256;19.026;2022-09-02T14:32:10;21.00;51.60
18388;DHT22;9320;50.256;19.026;2022-09-02T14:34:40;20.90;51.80
18388;DHT22;9320;50.256;19.026;2022-09-02T14:37:19;20.90;52.60
18388;DHT22;9320;50.256;19.026;2022-09-02T14:39:51;21.00;53.10
18388;DHT22;9320;50.256;19.026;2022-09-02T14:42:20;20.80;53.10
18388;DHT22;9320;50.256;19.026;2022-09-02T14:44:50;20.50;53.70
18388;DHT22;9320;50.256;19.026;2022-09-02T14:47:20;20.30;54.10
18388;DHT22;9320;50.256;19.026;2022-09-02T14:49:51;20.20;54.00
18388;DHT22;9320;50.256;19.026;2022-09-02T14:52:24;20.20;53.80
18388;DHT22;9320;50.256;19.026;2022-09-02T14:54:54;20.30;53.00
18388;DHT22;9320;50.256;19.026;2022-09-02T14:57:24;20.40;53.60
18388;DHT22;9320;50.256;19.026;2022-09-02T15:00:02;20.40;52.80
18388;DHT22;9320;50.256;19.026;2022-09-02T15:02:32;20.40;52.60
18388;DHT22;9320;50.256;19.026;2022-09-02T15:05:04;20.50;52.50
18388;DHT22;9320;50.256;19.026;2022-09-02T15:07:33;20.50;52.00
18388;DHT22;9320;50.256;19.026;2022-09-02T15:10:01;20.60;52.10
18388;DHT22;9320;50.256;19.026;2022-09-02T15:12:32;20.60;52.20
18388;DHT22;9320;50.256;19.026;2022-09-02T15:15:02;20.40;52.90
18388;DHT22;9320;50.256;19.026;2022-09-02T15:17:30;20.30;53.20
18388;DHT22;9320;50.256;19.026;2022-09-02T15:19:58;20.00;53.30
18388;DHT22;9320;50.256;19.026;2022-09-02T15:22:27;19.80;53.50
18388;DHT22;9320;50.256;19.026;2022-09-02T15:24:55;19.80;53.90
18388;DHT22;9320;50.256;19.026;2022-09-02T15:27:23;19.90;53.80
18388;DHT22;9320;50.256;19.026;2022-09-02T15:29:51;20.00;54.30
18388;DHT22;9320;50.256;19.026;2022-09-02T15:32:21;20.10;53.40
18388;DHT22;9320;50.256;19.026;2022-09-02T15:34:49;20.20;53.50
18388;DHT22;9320;50.256;19.026;2022-09-02T15:37:17;20.20;53.10
18388;DHT22;9320;50.256;19.026;2022-09-02T15:39:45;20.30;53.50
18388;DHT22;9320;50.256;19.026;2022-09-02T15:42:13;20.30;53.20
18388;DHT22;9320;50.256;19.026;2022-09-02T15:44:43;20.30;53.80
18388;DHT22;9320;50.256;19.026;2022-09-02T15:47:12;20.30;53.50
18388;DHT22;9320;50.256;19.026;2022-09-02T15:49:41;20.20;54.20
18388;DHT22;9320;50.256;19.026;2022-09-02T15:52:09;20.10;53.80
18388;DHT22;9320;50.256;19.026;2022-09-02T15:54:37;20.10;54.30
18388;DHT22;9320;50.256;19.026;2022-09-02T15:57:05;19.90;54.50
18388;DHT22;9320;50.256;19.026;2022-09-02T15:59:33;20.00;54.70
18388;DHT22;9320;50.256;19.026;2022-09-02T16:02:01;19.90;55.20
18388;DHT22;9320;50.256;19.026;2022-09-02T16:04:29;20.00;55.60
18388;DHT22;9320;50.256;19.026;2022-09-02T16:06:58;20.00;55.60
18388;DHT22;9320;50.256;19.026;2022-09-02T16:09:27;19.90;56.00
18388;DHT22;9320;50.256;19.026;2022-09-02T16:11:55;19.70;56.60
18388;DHT22;9320;50.256;19.026;2022-09-02T16:14:24;19.60;57.00